Airfield :
LOGIN :

Register | Disclaimer

   EN    FR    IT 

 










Legend :    VFR   Marginal VFR   IFR   Intensive IFR   Very Intensive IFR
Visi :
Ceiling :
>= 8 km
>= 3000ft
5 to 8 km
1000 to 3000 ft
1500m to 5 km
500 to 1000 ft
800 to 1500m
200 to 500 ft
< 800m
< 200 ft
Symbols :   Thunderstorms  Fog  Heavy snow  Heavy precipitations  Wind > 20 kt
SIGMETs :     Misc.  Thunderstorms  Icing  Turbulence  Mountain Waves  Volcanic Ashes






- Airport Elevation : 628 ft
- IATA code : CMR


LFGA - Colmar-Houssen

CURRENT METAR :
  • 260030Z AUTO VRB02KT 7000 -RA FEW007/// SCT038/// OVC072/// ///CB 11/11 Q1005

EXPIRED METARs :
  • 260000Z AUTO 03002KT 9999 -RA SCT008/// OVC070/// ///CB 11/11 Q1005
  • 252330Z AUTO VRB03KT 7000 RA ///TCU 11/11 Q1005
  • 252300Z AUTO VRB01KT 6000 +RA FEW005/// SCT010/// BKN045/// ///CB 12/11 Q1005
  • 252230Z AUTO 05004KT 360V090 7000 +RA OVC004/// ///CB 12/11 Q1005
  • 252200Z AUTO 04005KT 020V080 9999 FEW005/// OVC047/// ///TCU 12/11 Q1005

TAF N/A



MET'MAP, your aeronautical weather chart ! - Copyright ORBIFLY December 2007 - Disclaimer

ORBIFLY MET'MAP TEAM :

Programming & Development : Alexandra Zaïnal
Concept & original design : Baudouin d'Aumeries
Assistance for programming : Marc-Olivier Méhu
Technical & hardware support : Manuel Goepfert

Contact : metmap@orbifly.com




SOURCES & CREDITS :

   NOAA